Time;durP1;ratioP1;P1;durP2;ratioP2;P2;SDS_P1;SDS_P2;PMS_P1;PMS_P2;Temp;Humidity;BMP_temperature;BMP_pressure;BME280_temperature;BME280_humidity;BME280_pressure;Samples;Min_cycle;Max_cycle;Signal;HPM_P1;HPM_P2
2022/05/31 00:02:19;;;;;;;;;7.33;5.33;;;;;17.17;39.96;100439.22;4852851;29;45281;-87
2022/05/31 00:04:46;;;;;;;;;4.33;4.33;;;;;16.89;40.17;100393.16;4837282;29;45482;-87
2022/05/31 00:07:11;;;;;;;;;4.67;4.00;;;;;17.09;40.69;100428.63;4838893;29;45432;-87
2022/05/31 00:09:37;;;;;;;;;4.67;4.67;;;;;17.08;40.66;100432.19;4839003;29;45458;-87
2022/05/31 00:12:06;;;;;;;;;6.33;6.33;;;;;17.08;40.90;100425.94;4853293;29;45489;-88
2022/05/31 00:14:32;;;;;;;;;2.33;2.33;;;;;17.06;41.18;100417.03;4840292;29;45374;-87
2022/05/31 00:16:59;;;;;;;;;6.67;6.67;;;;;16.94;41.62;100402.00;4854127;29;47236;-87
2022/05/31 00:19:25;;;;;;;;;7.00;7.00;;;;;17.02;41.99;100426.06;4852635;29;45526;-88
2022/05/31 00:21:59;;;;;;;;;7.67;6.67;;;;;16.93;41.42;100416.38;4851432;29;45522;-87
2022/05/31 00:24:24;;;;;;;;;6.67;6.00;;;;;16.81;41.84;100398.66;4852564;29;45374;-86
2022/05/31 00:26:50;;;;;;;;;5.33;5.33;;;;;16.93;42.32;100433.38;4838215;29;45453;-87
2022/05/31 00:29:16;;;;;;;;;5.33;5.33;;;;;16.81;41.81;100401.34;4852263;29;45485;-86
2022/05/31 00:31:46;;;;;;;;;8.00;7.00;;;;;16.83;42.14;100404.00;4838372;29;45910;-87
2022/05/31 00:34:13;;;;;;;;;5.00;5.00;;;;;16.90;41.77;100425.34;4839585;29;45182;-87
2022/05/31 00:36:40;;;;;;;;;5.67;5.67;;;;;16.90;42.09;100422.66;4853051;29;46612;-88
2022/05/31 00:39:06;;;;;;;;;7.00;5.67;;;;;16.81;41.89;100398.66;4854128;29;44936;-87
2022/05/31 00:41:34;;;;;;;;;8.67;6.33;;;;;16.91;41.63;100405.63;4839301;29;45491;-87
2022/05/31 00:44:16;;;;;;;;;6.00;6.00;;;;;16.94;41.59;100416.31;4837808;29;45499;-88
2022/05/31 00:46:59;;;;;;;;;4.67;4.00;;;;;16.97;41.61;100418.97;4839286;29;46176;-87
2022/05/31 00:49:39;;;;;;;;;3.00;3.00;;;;;16.97;41.19;100421.66;4851459;29;45495;-87
2022/05/31 00:52:23;;;;;;;;;4.00;4.00;;;;;17.00;41.07;100418.91;4852464;29;45356;-88
2022/05/31 00:55:00;;;;;;;;;5.67;5.67;;;;;17.03;41.10;100411.69;4838899;29;45387;-88
2022/05/31 00:57:27;;;;;;;;;5.33;5.33;;;;;17.03;40.87;100406.31;4853536;29;46894;-87
2022/05/31 01:00:04;;;;;;;;;5.00;5.00;;;;;17.04;41.19;100400.03;4852782;29;45464;-88
2022/05/31 01:02:30;;;;;;;;;5.67;5.00;;;;;17.06;40.99;100407.16;4853011;29;45315;-87
2022/05/31 01:04:58;;;;;;;;;7.00;7.00;;;;;17.14;41.92;100409.72;4838927;29;45297;-88
2022/05/31 01:07:27;;;;;;;;;7.67;7.67;;;;;17.10;42.58;100408.88;4853664;29;46711;-88
2022/05/31 01:09:52;;;;;;;;;9.00;9.00;;;;;17.08;43.32;100410.69;4840086;29;45416;-87
2022/05/31 01:12:20;;;;;;;;;7.00;7.00;;;;;17.15;43.62;100416.88;4854392;29;45439;-87
2022/05/31 01:14:45;;;;;;;;;7.00;6.00;;;;;17.08;43.70;100415.19;4854671;29;45004;-88
2022/05/31 01:17:17;;;;;;;;;6.67;6.67;;;;;17.08;43.87;100412.50;4854844;29;47942;-88
2022/05/31 01:19:56;;;;;;;;;9.33;8.00;;;;;16.97;44.15;100401.97;4839142;29;44833;-87
2022/05/31 01:22:45;;;;;;;;;7.00;6.33;;;;;17.06;44.57;100406.28;4820769;29;44887;-87
2022/05/31 01:25:28;;;;;;;;;9.00;7.00;;;;;17.08;44.76;100415.19;4820708;29;45312;-87
2022/05/31 01:28:17;;;;;;;;;8.00;8.00;;;;;17.03;45.28;100411.69;4820177;29;45477;-88
2022/05/31 01:31:15;;;;;;;;;6.00;6.00;;;;;16.88;45.92;100391.38;4820389;29;45535;-87
2022/05/31 01:33:51;;;;;;;;;8.33;8.00;;;;;17.00;45.56;100412.63;4834704;29;45404;-87
2022/05/31 01:36:25;;;;;;;;;7.67;7.67;;;;;16.97;45.73;100416.28;4819745;29;45393;-87
2022/05/31 01:39:03;;;;;;;;;8.00;8.00;;;;;16.90;45.62;100401.16;4832978;29;48569;-87
2022/05/31 01:42:06;;;;;;;;;6.00;6.00;;;;;16.90;45.93;100411.91;4832954;29;44724;-88
2022/05/31 01:44:35;;;;;;;;;6.33;5.33;;;;;16.83;46.48;100421.00;4762756;29;45840;-87
2022/05/31 01:47:02;;;;;;;;;7.67;6.33;;;;;16.79;46.59;100422.81;4747716;29;45404;-87
2022/05/31 01:49:33;;;;;;;;;9.00;8.67;;;;;16.72;46.77;100414.88;4761276;29;45628;-87
2022/05/31 01:51:59;;;;;;;;;8.00;8.00;;;;;16.69;46.83;100425.69;4746737;29;45412;-88
2022/05/31 01:54:27;;;;;;;;;8.00;8.00;;;;;16.75;47.17;100420.22;4762772;29;45401;-87
2022/05/31 01:56:59;;;;;;;;;6.00;6.00;;;;;16.74;46.95;100422.03;4749366;29;45611;-87
2022/05/31 01:59:31;;;;;;;;;7.67;7.67;;;;;16.74;47.23;100415.75;4763460;29;45415;-88
2022/05/31 02:01:59;;;;;;;;;9.00;7.67;;;;;16.66;47.19;100396.19;4764044;29;45301;-87
2022/05/31 02:04:28;;;;;;;;;8.00;7.00;;;;;16.56;47.21;100385.63;4750016;29;45350;-87
2022/05/31 02:10:16;;;;;;;;;8.00;8.00;;;;;16.67;47.37;100414.09;4763875;29;45369;-87
2022/05/31 02:12:42;;;;;;;;;8.00;6.33;;;;;16.50;47.60;100388.41;4762670;29;45320;-87
2022/05/31 02:15:08;;;;;;;;;9.00;8.00;;;;;16.59;47.59;100415.06;4749875;29;45391;-87
2022/05/31 02:17:34;;;;;;;;;8.00;6.33;;;;;16.59;47.71;100415.06;4756764;29;45427;-87
2022/05/31 02:19:59;;;;;;;;;8.00;8.00;;;;;16.60;48.03;100435.66;4819718;29;45439;-88
2022/05/31 02:23:18;;;;;;;;;8.67;8.67;;;;;16.64;48.03;100430.22;4833339;29;44913;-87
2022/05/31 02:25:43;;;;;;;;;7.00;7.00;;;;;16.52;48.20;100432.22;4832755;29;45412;-87
2022/05/31 02:28:12;;;;;;;;;6.00;6.00;;;;;16.52;48.29;100426.84;4820355;29;45367;-87
2022/05/31 02:30:37;;;;;;;;;6.00;5.00;;;;;16.46;48.52;100413.50;4834068;29;47519;-86
2022/05/31 02:33:06;;;;;;;;;6.67;6.67;;;;;16.54;48.40;100426.78;4820227;29;45269;-87
2022/05/31 02:35:31;;;;;;;;;6.00;6.00;;;;;16.43;48.35;100410.88;4820909;29;45523;-87
2022/05/31 02:37:58;;;;;;;;;6.33;6.33;;;;;16.20;48.52;100376.34;4834860;29;45576;-88
2022/05/31 02:40:24;;;;;;;;;7.00;6.00;;;;;16.28;48.74;100389.63;4833585;29;47395;-88
2022/05/31 02:42:49;;;;;;;;;7.33;6.00;;;;;16.37;48.24;100400.22;4833492;29;45478;-87
2022/05/31 02:45:15;;;;;;;;;7.33;6.00;;;;;16.30;48.32;100382.44;4818259;29;45324;-87
2022/05/31 02:48:20;;;;;;;;;5.33;5.33;;;;;16.52;48.11;100413.41;4832881;29;45387;-87
2022/05/31 02:50:45;;;;;;;;;6.33;6.33;;;;;16.37;48.28;100405.59;4833999;29;47030;-87
2022/05/31 02:53:11;;;;;;;;;6.33;6.00;;;;;16.28;48.55;100406.63;4819605;29;45357;-88
2022/05/31 02:55:36;;;;;;;;;7.00;7.00;;;;;16.12;48.41;100395.22;4833927;29;45706;-87
2022/05/31 02:58:02;;;;;;;;;6.00;6.00;;;;;16.19;48.51;100422.84;4818761;29;44906;-87
2022/05/31 03:00:27;;;;;;;;;6.33;6.00;;;;;16.10;48.72;100417.63;4834491;29;46548;-87
2022/05/31 03:02:56;;;;;;;;;8.00;6.00;;;;;16.09;48.99;100416.72;4820794;29;45376;-87
2022/05/31 03:05:22;;;;;;;;;6.67;5.00;;;;;16.07;49.35;100406.91;4820269;29;45484;-87
2022/05/31 03:07:48;;;;;;;;;10.00;8.00;;;;;16.19;49.49;100426.41;4819626;29;45372;-87
2022/05/31 03:10:13;;;;;;;;;8.00;6.00;;;;;16.17;49.29;100414.81;4832201;29;45386;-86
2022/05/31 03:12:39;;;;;;;;;6.00;6.00;;;;;16.18;49.39;100421.97;4846378;29;45484;-88
2022/05/31 03:15:15;;;;;;;;;6.67;6.67;;;;;16.06;49.19;100395.31;4851754;29;45424;-87
2022/05/31 03:17:46;;;;;;;;;7.33;7.33;;;;;16.17;49.55;100408.56;4851576;29;45193;-86
2022/05/31 03:20:27;;;;;;;;;8.67;6.00;;;;;16.13;49.60;100394.28;4836784;29;46526;-87
2022/05/31 03:23:02;;;;;;;;;7.00;7.00;;;;;16.00;49.13;100376.63;4852479;29;45545;-88
2022/05/31 03:25:30;;;;;;;;;8.00;8.00;;;;;16.06;49.17;100408.72;4853037;29;45539;-87
2022/05/31 03:28:03;;;;;;;;;6.33;6.33;;;;;16.12;48.99;100432.78;4854486;29;44839;-87
2022/05/31 03:30:29;;;;;;;;;8.00;8.00;;;;;15.96;48.94;100412.44;4841225;29;46837;-87
2022/05/31 03:32:57;;;;;;;;;12.00;8.00;;;;;15.96;49.19;100420.50;4857536;29;44789;-87
2022/05/31 03:35:30;;;;;;;;;4.33;4.33;;;;;16.02;49.52;100436.50;4842881;29;45350;-86
2022/05/31 03:37:59;;;;;;;;;6.00;6.00;;;;;15.87;49.34;100418.78;4843109;29;44738;-87
2022/05/31 03:43:10;;;;;;;;;6.67;6.67;;;;;15.79;49.91;100401.91;4842510;29;45383;-88
2022/05/31 03:45:42;;;;;;;;;5.00;5.00;;;;;15.93;50.04;100415.16;4841961;29;45414;-87
2022/05/31 03:48:10;;;;;;;;;7.67;7.67;;;;;15.80;50.30;100409.94;4857479;29;45476;-88
2022/05/31 03:50:38;;;;;;;;;7.67;7.67;;;;;15.74;49.82;100390.38;4839475;29;45245;-87
2022/05/31 03:53:12;;;;;;;;;5.00;5.00;;;;;15.83;49.66;100392.03;4855776;29;45480;-87
2022/05/31 03:55:40;;;;;;;;;5.67;5.67;;;;;15.73;49.71;100392.16;4840182;29;45721;-87
2022/05/31 03:58:07;;;;;;;;;10.33;7.33;;;;;15.96;49.67;100420.50;4841875;29;44809;-88
2022/05/31 04:00:34;;;;;;;;;6.67;6.67;;;;;16.04;49.92;100428.41;4855008;29;46746;-88
2022/05/31 04:03:00;;;;;;;;;5.00;5.00;;;;;15.83;49.70;100394.72;4855806;29;45372;-87
2022/05/31 04:05:26;;;;;;;;;7.67;7.33;;;;;15.98;49.59;100424.03;4857707;29;44720;-87
2022/05/31 04:08:00;;;;;;;;;5.33;5.33;;;;;16.00;49.98;100419.53;4856226;29;45927;-88
2022/05/31 04:10:25;;;;;;;;;6.67;6.67;;;;;15.87;49.56;100400.03;4856349;29;47520;-87
2022/05/31 04:12:52;;;;;;;;;7.00;6.00;;;;;15.85;49.29;100406.31;4856708;29;44935;-87
2022/05/31 04:15:18;;;;;;;;;6.00;6.00;;;;;15.91;49.19;100420.53;4856200;29;45491;-87
2022/05/31 04:17:43;;;;;;;;;7.00;7.00;;;;;15.74;49.41;100401.09;4857239;29;45591;-87
2022/05/31 04:20:09;;;;;;;;;6.00;6.00;;;;;15.71;49.58;100410.00;4839822;29;45984;-88
2022/05/31 04:22:34;;;;;;;;;6.00;6.00;;;;;15.59;51.14;100399.44;4853633;29;45511;-89
2022/05/31 04:25:01;;;;;;;;;6.00;6.00;;;;;15.30;51.14;100371.19;4854185;29;45515;-87
2022/05/31 04:27:28;;;;;;;;;7.67;6.67;;;;;15.49;50.62;100408.50;4856272;29;45506;-88
2022/05/31 04:29:54;;;;;;;;;5.67;5.67;;;;;15.36;51.06;100392.56;4840319;29;45612;-88
2022/05/31 04:32:20;;;;;;;;;6.00;6.00;;;;;15.37;50.87;100389.00;4856792;29;44842;-88
2022/05/31 04:34:46;;;;;;;;;7.00;7.00;;;;;15.47;50.96;100407.63;4840458;29;45460;-87
2022/05/31 04:37:13;;;;;;;;;8.67;8.00;;;;;15.56;50.80;100428.97;4840910;29;44887;-88
2022/05/31 04:39:39;;;;;;;;;8.00;8.00;;;;;15.30;51.80;100379.22;4841215;29;47098;-88
2022/05/31 04:42:08;;;;;;;;;5.00;5.00;;;;;15.61;50.79;100419.06;4839826;29;44810;-88
2022/05/31 04:44:33;;;;;;;;;7.00;5.33;;;;;15.58;51.02;100419.13;4854927;29;45357;-87
2022/05/31 04:47:02;;;;;;;;;6.00;6.00;;;;;15.63;50.39;100421.75;4855198;29;45415;-87
2022/05/31 04:49:28;;;;;;;;;5.67;5.00;;;;;15.44;50.92;100394.28;4841376;29;46831;-87
2022/05/31 04:51:54;;;;;;;;;8.00;8.00;;;;;15.55;50.42;100408.44;4840113;29;45427;-87
2022/05/31 04:54:23;;;;;;;;;8.33;7.00;;;;;15.65;50.33;100423.50;4840917;29;44873;-86
2022/05/31 04:56:48;;;;;;;;;5.33;5.33;;;;;15.57;50.72;100414.66;4840768;29;44789;-86
2022/05/31 04:59:20;;;;;;;;;6.33;5.00;;;;;15.67;50.32;100427.03;4856623;29;47712;-86
2022/05/31 05:01:45;;;;;;;;;5.33;5.33;;;;;15.59;50.48;100423.56;4842454;29;45380;-88
2022/05/31 05:04:12;;;;;;;;;4.00;4.00;;;;;15.64;50.30;100412.81;4856083;29;45400;-88
2022/05/31 05:06:39;;;;;;;;;7.00;5.33;;;;;15.65;50.18;100431.53;4841816;29;45466;-88
2022/05/31 05:09:06;;;;;;;;;7.67;7.00;;;;;15.67;51.02;100440.44;4841146;29;45382;-87
2022/05/31 05:11:35;;;;;;;;;5.33;5.33;;;;;15.39;50.54;100400.59;4840407;29;45400;-86
2022/05/31 05:14:00;;;;;;;;;5.67;5.67;;;;;15.35;50.40;100390.81;4842231;29;45494;-87
2022/05/31 05:16:27;;;;;;;;;7.00;6.00;;;;;15.42;50.56;100404.13;4856714;29;45462;-87
2022/05/31 05:18:57;;;;;;;;;5.33;5.33;;;;;15.59;50.31;100427.16;4842193;29;46967;-87
2022/05/31 05:21:23;;;;;;;;;5.00;5.00;;;;;15.70;50.63;100440.44;4840513;29;45209;-88
2022/05/31 05:23:49;;;;;;;;;5.67;5.67;;;;;15.66;50.13;100421.72;4855914;29;45502;-86
2022/05/31 05:26:14;;;;;;;;;7.00;5.33;;;;;15.77;49.82;100435.91;4856655;29;45436;-88
2022/05/31 05:31:31;;;;;;;;;5.00;5.00;;;;;15.85;49.68;100438.50;4859223;29;45497;-87
2022/05/31 05:34:09;;;;;;;;;5.00;5.00;;;;;15.75;49.47;100402.84;4856783;29;45371;-87
2022/05/31 05:36:35;;;;;;;;;6.00;6.00;;;;;15.76;49.08;100408.22;4842637;29;45492;-87
2022/05/31 05:39:00;;;;;;;;;7.00;7.00;;;;;16.02;49.04;100436.50;4856876;29;47521;-88
2022/05/31 05:41:30;;;;;;;;;5.67;5.67;;;;;15.98;49.39;100391.84;4857518;29;45571;-87
2022/05/31 05:43:56;;;;;;;;;6.33;6.33;;;;;16.40;48.94;100453.84;4840873;29;45288;-87
2022/05/31 05:46:25;;;;;;;;;5.33;5.00;;;;;16.48;48.85;100448.38;4857954;29;45429;-87
2022/05/31 05:48:54;;;;;;;;;5.00;5.00;;;;;16.46;48.15;100424.25;4855828;29;45542;-90
2022/05/31 05:51:23;;;;;;;;;6.67;6.67;;;;;16.65;48.17;100466.91;4856230;29;45406;-87
2022/05/31 05:53:50;;;;;;;;;6.00;5.00;;;;;16.54;47.78;100451.88;4854354;29;45383;-87
2022/05/31 05:56:19;;;;;;;;;7.00;7.00;;;;;16.38;47.72;100419.00;4858182;29;45452;-88
2022/05/31 05:59:23;;;;;;;;;7.33;7.33;;;;;16.55;47.50;100442.88;4856985;29;48020;-87
2022/05/31 06:01:54;;;;;;;;;7.00;7.00;;;;;16.34;47.61;100419.94;4831351;29;45274;-88
2022/05/31 06:04:57;;;;;;;;;9.33;8.00;;;;;16.68;47.53;100469.53;4836709;29;45451;-87
2022/05/31 06:11:18;;;;;;;;;7.00;5.67;;;;;16.63;47.91;100474.13;4839122;29;45560;-87
2022/05/31 06:14:09;;;;;;;;;5.67;5.67;;;;;16.59;47.98;100462.53;4837525;29;45542;-87
2022/05/31 06:20:30;;;;;;;;;6.33;6.00;;;;;16.72;47.72;100477.50;4766076;29;44873;-88
2022/05/31 11:12:48;;;;;;;;;1.33;1.33;;;;;23.97;27.72;100458.34;4812246;29;45223;-87
2022/05/31 13:54:13;;;;;;;;;3.00;2.00;;;;;26.01;25.09;100450.00;4756317;29;44846;-86
2022/05/31 13:57:55;;;;;;;;;;;;;;;;;;;;;
2022/05/31 14:23:33;;;;;;;;;3.00;3.00;;;;;25.84;24.59;100450.03;4782271;29;45759;-89
2022/05/31 14:26:21;;;;;;;;;1.67;1.67;;;;;25.40;24.99;100406.97;4784642;29;45403;-88
2022/05/31 14:36:45;;;;;;;;;3.00;2.25;;;;;32.67;21.03;100431.72;4755122;29;45369;-88
2022/05/31 14:40:03;;;;;;;;;;;;;;;;;;;;;
2022/05/31 14:50:30;;;;;;;;;;;;;;;;;;;;;
2022/05/31 14:59:56;;;;;;;;;2.00;2.00;;;;;37.36;15.84;100399.94;4720138;30;45750;-87
2022/05/31 15:02:56;;;;;;;;;1.00;1.00;;;;;37.92;15.74;100397.78;4728714;30;45525;-87
2022/05/31 15:08:33;;;;;;;;;1.00;1.00;;;;;39.20;13.50;100429.19;1304053;27;46023;-87
2022/05/31 15:21:07;;;;;;;;;0.67;0.67;;;;;34.51;15.72;100415.75;4820753;29;45045;-86
2022/05/31 15:23:40;;;;;;;;;0.00;0.00;;;;;31.41;17.57;100432.69;4825636;29;44912;-86
2022/05/31 15:26:21;;;;;;;;;0.00;0.00;;;;;29.57;18.95;100439.81;4843025;29;45314;-86
2022/05/31 15:29:20;;;;;;;;;1.33;1.33;;;;;29.03;19.92;100456.31;4844166;29;46519;-87
2022/05/31 15:32:23;;;;;;;;;;;;;;;;;;;;;
2022/05/31 15:35:13;;;;;;;;;0.67;0.67;;;;;32.56;19.29;100451.03;4810747;29;66346;-86
2022/05/31 15:38:21;;;;;;;;;1.67;1.67;;;;;34.15;17.84;100415.34;4818206;29;45174;-87
2022/05/31 15:41:35;;;;;;;;;;;;;;;;;;;;;
2022/05/31 15:44:14;;;;;;;;;2.00;2.00;;;;;35.27;18.38;100418.81;4805924;29;68858;-86
2022/05/31 15:46:50;;;;;;;;;0.00;0.00;;;;;37.53;15.95;100437.91;4793469;29;45350;-86
2022/05/31 15:49:18;;;;;;;;;1.00;1.00;;;;;38.49;15.50;100444.44;4793263;29;47083;-86
2022/05/31 15:51:50;;;;;;;;;1.67;1.67;;;;;38.60;16.16;100446.91;4864362;29;44939;-87
2022/05/31 15:54:57;;;;;;;;;;;;;;;;;;;;;
2022/05/31 15:57:26;;;;;;;;;2.33;2.33;;;;;39.69;15.16;100468.16;4881526;29;65153;-86
2022/05/31 15:59:55;;;;;;;;;1.00;1.00;;;;;40.32;14.73;100449.84;4881211;29;45648;-87
2022/05/31 16:03:13;;;;;;;;;;;;;;;;;;;;;
2022/05/31 16:05:45;;;;;;;;;4.00;3.00;;;;;41.83;14.06;100420.59;4805067;29;69435;-86
2022/05/31 16:11:34;;;;;;;;;3.33;3.00;;;;;40.86;14.35;100473.31;4801222;29;45475;-85
2022/05/31 16:14:11;;;;;;;;;3.00;1.00;;;;;39.26;14.20;100464.66;4827326;29;45497;-86
2022/05/31 16:20:28;;;;;;;;;2.00;2.00;;;;;34.77;17.92;100438.25;4824630;29;44710;-84
2022/05/31 16:23:00;;;;;;;;;2.33;2.33;;;;;36.44;17.24;100476.72;4750556;29;47854;-85
2022/05/31 16:25:58;;;;;;;;;;;;;;;;;;;;;
2022/05/31 16:28:27;;;;;;;;;2.00;2.00;;;;;39.45;15.61;100469.06;4751731;30;68880;-87
2022/05/31 16:43:25;;;;;;;;;2.00;2.00;;;;;39.78;14.40;100439.28;4750970;30;44749;-86
2022/05/31 16:45:52;;;;;;;;;1.33;1.33;;;;;40.08;14.45;100486.09;4751148;30;45857;-86
2022/05/31 16:48:21;;;;;;;;;1.00;1.00;;;;;37.21;15.31;100480.94;4736074;30;45669;-86
2022/05/31 16:50:54;;;;;;;;;2.00;2.00;;;;;34.01;17.62;100456.03;4752390;30;44830;-85
2022/05/31 16:56:33;;;;;;;;;1.33;1.33;;;;;31.50;20.45;100503.47;4769589;29;45291;-85
2022/05/31 16:59:03;;;;;;;;;2.00;2.00;;;;;33.36;19.74;100485.63;4754218;29;45369;-86
2022/05/31 17:01:38;;;;;;;;;1.00;0.33;;;;;34.25;18.56;100468.69;4769386;29;45493;-86
2022/05/31 17:04:07;;;;;;;;;2.00;2.00;;;;;33.28;18.57;100478.00;4754125;29;45547;-87
2022/05/31 17:15:54;;;;;;;;;2.33;2.33;;;;;27.92;24.04;100490.81;4835709;29;45425;-86
2022/05/31 17:18:22;;;;;;;;;2.33;0.67;;;;;27.32;24.68;100508.06;4824322;29;45501;-85
2022/05/31 17:20:52;;;;;;;;;2.00;2.00;;;;;26.53;24.87;100465.28;4808623;29;45599;-85
2022/05/31 17:23:28;;;;;;;;;3.33;3.33;;;;;26.09;25.72;100476.84;4824192;29;44755;-86
2022/05/31 17:26:07;;;;;;;;;2.00;2.00;;;;;25.68;27.10;100513.47;4810270;29;45530;-85
2022/05/31 17:28:54;;;;;;;;;2.00;2.00;;;;;25.09;27.91;100520.13;4841232;29;45534;-85
2022/05/31 17:31:29;;;;;;;;;4.67;3.33;;;;;24.30;29.24;100493.09;4831943;29;45442;-84
2022/05/31 17:33:57;;;;;;;;;2.00;2.00;;;;;23.93;29.06;100500.19;4862863;29;44708;-86
2022/05/31 17:36:25;;;;;;;;;3.00;3.00;;;;;23.82;29.20;100518.81;4862754;29;45396;-86
2022/05/31 17:38:58;;;;;;;;;5.00;5.00;;;;;23.65;29.86;100522.22;4861748;29;45433;-85
2022/05/31 17:41:40;;;;;;;;;3.00;3.00;;;;;23.50;30.21;100519.25;4862484;29;45415;-85
2022/05/31 17:44:12;;;;;;;;;1.33;1.33;;;;;23.31;30.56;100504.72;4865235;29;44711;-85
2022/05/31 17:46:41;;;;;;;;;2.00;2.00;;;;;23.22;30.30;100507.81;4863878;29;44904;-85
2022/05/31 17:49:08;;;;;;;;;3.00;3.00;;;;;23.22;30.25;100543.94;4863089;29;45580;-85
2022/05/31 17:51:41;;;;;;;;;3.00;3.00;;;;;23.03;31.33;100541.13;4863000;29;44823;-86
2022/05/31 17:54:31;;;;;;;;;4.67;3.00;;;;;22.88;31.11;100545.28;4846042;29;45747;-86
2022/05/31 17:57:01;;;;;;;;;2.33;2.33;;;;;22.34;31.80;100493.22;4860296;29;45519;-86
2022/05/31 17:59:27;;;;;;;;;1.67;1.67;;;;;22.40;31.49;100521.00;4862190;29;46988;-85
2022/05/31 18:01:53;;;;;;;;;3.00;3.00;;;;;22.36;31.44;100537.38;4861185;29;45420;-86
2022/05/31 18:04:19;;;;;;;;;3.00;3.00;;;;;22.39;31.28;100559.88;4844921;29;44852;-86
2022/05/31 18:07:13;;;;;;;;;2.00;2.00;;;;;22.33;32.49;100567.28;4858485;29;44843;-85
2022/05/31 18:20:32;;;;;;;;;4.00;3.00;;;;;21.99;32.32;100573.03;5807011;22;11895868;-85
2022/05/31 18:22:58;;;;;;;;;2.33;2.33;;;;;21.83;32.63;100569.97;6209895;22;46994;-86
2022/05/31 18:25:43;;;;;;;;;3.00;3.00;;;;;21.84;32.99;100595.25;6243918;22;45512;-87
2022/05/31 18:31:50;;;;;;;;;4.00;3.00;;;;;21.68;33.10;100594.91;6148103;22;44774;-87
2022/05/31 18:34:42;;;;;;;;;3.00;3.00;;;;;21.56;33.34;100602.47;6147503;23;45564;-87
2022/05/31 18:45:41;;;;;;;;;3.00;3.00;;;;;21.04;34.09;100593.31;6146241;23;45293;-86
2022/05/31 18:48:09;;;;;;;;;2.33;2.33;;;;;21.12;33.76;100612.03;6147236;23;45501;-85
2022/05/31 18:50:37;;;;;;;;;1.00;1.00;;;;;20.93;33.93;100595.50;6121931;23;44753;-86
2022/05/31 18:53:14;;;;;;;;;1.00;1.00;;;;;20.79;34.39;100585.09;6146937;23;45840;-86
2022/05/31 18:56:20;;;;;;;;;1.00;1.00;;;;;20.93;33.98;100623.41;6145508;23;47139;-86
2022/05/31 18:58:50;;;;;;;;;3.00;3.00;;;;;20.83;34.43;100616.53;6120601;23;45416;-86
2022/05/31 19:01:16;;;;;;;;;3.00;3.00;;;;;20.74;34.19;100614.09;6147261;23;45294;-85
2022/05/31 19:03:44;;;;;;;;;3.67;3.67;;;;;20.77;33.84;100622.09;6145478;23;45280;-85
2022/05/31 19:06:14;;;;;;;;;2.33;2.33;;;;;20.80;34.20;100623.81;6121240;23;46697;-87
2022/05/31 19:09:24;;;;;;;;;2.00;2.00;;;;;20.75;34.24;100624.84;6191995;22;45295;-86
2022/05/31 19:11:50;;;;;;;;;4.00;2.00;;;;;20.58;34.86;100624.41;6241269;22;44749;-85
2022/05/31 19:14:17;;;;;;;;;1.00;1.00;;;;;20.57;34.26;100639.75;6238923;22;45334;-86
2022/05/31 19:16:53;;;;;;;;;1.00;1.00;;;;;20.48;34.44;100623.81;6239112;22;45401;-86
2022/05/31 19:19:28;;;;;;;;;2.00;2.00;;;;;20.31;34.78;100620.72;6238425;22;44637;-86
2022/05/31 19:25:25;;;;;;;;;2.00;2.00;;;;;20.05;35.99;100611.50;6265121;22;45316;-86
2022/05/31 19:27:52;;;;;;;;;2.00;2.00;;;;;20.06;35.49;100637.59;6236569;22;48081;-85
2022/05/31 19:30:19;;;;;;;;;2.00;2.00;;;;;19.91;35.56;100611.00;6235447;22;45216;-86
2022/05/31 19:32:52;;;;;;;;;2.00;2.00;;;;;20.01;36.06;100636.81;6263089;22;44705;-86
2022/05/31 19:35:20;;;;;;;;;2.67;2.00;;;;;19.86;36.35;100642.63;6262251;22;44864;-86
2022/05/31 19:37:49;;;;;;;;;3.00;2.00;;;;;19.84;36.20;100641.78;6261522;22;46738;-85
2022/05/31 19:40:16;;;;;;;;;2.00;2.00;;;;;19.76;36.14;100645.56;6263668;22;45375;-86
2022/05/31 19:42:41;;;;;;;;;2.33;2.33;;;;;19.72;36.47;100645.69;6206588;22;45400;-85
2022/05/31 19:45:10;;;;;;;;;2.67;2.67;;;;;19.69;37.09;100668.19;6232321;22;45425;-86
2022/05/31 19:48:20;;;;;;;;;3.00;3.00;;;;;19.62;37.02;100660.28;6205863;22;45433;-86
2022/05/31 19:50:53;;;;;;;;;2.00;2.00;;;;;19.47;36.20;100656.13;6232336;22;45352;-86
2022/05/31 19:53:25;;;;;;;;;2.00;2.00;;;;;19.46;37.34;100667.88;6206428;22;45552;-85
2022/05/31 19:55:52;;;;;;;;;2.00;2.00;;;;;19.34;36.43;100666.34;6231525;22;45375;-86
2022/05/31 19:58:18;;;;;;;;;2.00;2.00;;;;;19.33;37.39;100678.94;6204878;22;46984;-86
2022/05/31 20:04:05;;;;;;;;;2.00;2.00;;;;;19.25;38.06;100675.53;6232513;22;45093;-85
2022/05/31 20:06:32;;;;;;;;;1.67;1.67;;;;;19.22;37.41;100680.09;6233326;22;45323;-86
2022/05/31 20:11:51;;;;;;;;;2.00;2.00;;;;;19.17;37.37;100702.66;6233623;22;44709;-85
2022/05/31 20:14:17;;;;;;;;;2.00;2.00;;;;;19.06;37.68;100688.53;6182853;22;44719;-86
2022/05/31 20:16:42;;;;;;;;;1.33;1.33;;;;;19.03;37.79;100704.78;6234448;22;45311;-84
2022/05/31 20:19:26;;;;;;;;;2.33;2.33;;;;;18.93;38.11;100698.69;6233477;22;45133;-85
2022/05/31 20:21:54;;;;;;;;;3.00;3.00;;;;;19.02;38.11;100723.66;6233784;22;45304;-85
2022/05/31 20:24:22;;;;;;;;;2.00;2.00;;;;;18.96;37.83;100717.47;6206846;22;45526;-85
2022/05/31 20:26:48;;;;;;;;;3.00;3.00;;;;;18.95;38.07;100729.19;6207522;22;45441;-85
2022/05/31 20:29:17;;;;;;;;;4.00;2.00;;;;;18.92;38.52;100733.75;6205788;22;45187;-85
2022/05/31 20:31:43;;;;;;;;;1.00;1.00;;;;;18.67;38.18;100706.38;6204493;22;44765;-85
2022/05/31 20:34:13;;;;;;;;;2.67;2.67;;;;;18.86;37.83;100740.13;6231365;22;45424;-85
2022/05/31 20:36:41;;;;;;;;;3.67;2.00;;;;;18.71;38.16;100718.88;6206399;22;45284;-85
2022/05/31 20:39:15;;;;;;;;;3.33;3.00;;;;;18.62;38.39;100713.66;6204692;22;46622;-85
2022/05/31 20:41:41;;;;;;;;;2.00;2.00;;;;;18.74;37.97;100751.13;6204763;22;45245;-86
2022/05/31 20:44:10;;;;;;;;;2.00;2.00;;;;;18.73;38.25;100749.38;6205927;22;45217;-86
2022/05/31 20:46:36;;;;;;;;;2.00;2.00;;;;;18.50;38.79;100720.16;6205230;22;45457;-86
2022/05/31 20:49:01;;;;;;;;;2.67;2.00;;;;;18.54;38.58;100738.97;6206142;22;45417;-86
2022/05/31 20:51:31;;;;;;;;;1.00;1.00;;;;;18.63;38.94;100750.47;6232342;22;45406;-86
2022/05/31 20:53:59;;;;;;;;;2.00;2.00;;;;;18.43;38.94;100724.78;6206979;22;45518;-86
2022/05/31 20:56:27;;;;;;;;;1.67;1.67;;;;;18.54;38.90;100749.72;6230974;22;45417;-86
2022/05/31 20:59:00;;;;;;;;;3.00;3.00;;;;;18.37;38.78;100730.28;6205366;22;47146;-86
2022/05/31 21:01:28;;;;;;;;;1.33;1.33;;;;;18.42;39.64;100754.44;6204545;22;44838;-85
2022/05/31 21:03:58;;;;;;;;;3.00;3.00;;;;;18.39;39.15;100761.66;6232371;22;44682;-86
2022/05/31 21:06:33;;;;;;;;;4.00;3.00;;;;;18.32;39.28;100748.31;6232226;22;45346;-86
2022/05/31 21:09:02;;;;;;;;;2.00;2.00;;;;;18.15;39.58;100725.28;6230553;22;47000;-86
2022/05/31 21:11:28;;;;;;;;;2.00;2.00;;;;;18.25;39.27;100757.44;6230454;22;45295;-86
2022/05/31 21:13:56;;;;;;;;;3.00;3.00;;;;;18.23;39.65;100762.84;6230559;22;45200;-85
2022/05/31 21:16:24;;;;;;;;;2.00;2.00;;;;;18.16;39.81;100759.38;6230309;22;45180;-86
2022/05/31 21:18:58;;;;;;;;;3.00;3.00;;;;;17.96;39.82;100729.22;6204220;22;46670;-86
2022/05/31 21:21:31;;;;;;;;;3.33;2.00;;;;;18.12;40.43;100768.41;6204738;22;45298;-87
2022/05/31 21:24:02;;;;;;;;;3.00;3.00;;;;;17.97;40.75;100758.75;6231293;22;45364;-86
2022/05/31 21:26:31;;;;;;;;;2.00;2.00;;;;;17.78;40.30;100742.00;6232940;22;45279;-86
2022/05/31 21:32:18;;;;;;;;;2.00;2.00;;;;;17.85;40.97;100764.34;6232783;22;45323;-86
2022/05/31 21:34:51;;;;;;;;;3.00;3.00;;;;;17.78;40.78;100763.53;6232341;22;45268;-85
2022/05/31 21:37:22;;;;;;;;;2.00;2.00;;;;;17.80;40.95;100771.59;6206018;22;45716;-85
2022/05/31 21:42:40;;;;;;;;;2.67;2.67;;;;;17.53;41.43;100737.91;6234432;22;45382;-85
2022/05/31 21:45:07;;;;;;;;;1.67;1.67;;;;;17.52;41.27;100738.81;6183338;22;45248;-85
2022/05/31 21:47:32;;;;;;;;;2.00;2.00;;;;;17.64;42.31;100773.59;6235242;22;45326;-85
2022/05/31 21:49:58;;;;;;;;;2.00;2.00;;;;;17.62;41.78;100767.38;6232599;22;46485;-85
2022/05/31 21:52:26;;;;;;;;;1.00;1.00;;;;;17.50;42.55;100756.78;6207702;22;45266;-85
2022/05/31 21:55:01;;;;;;;;;2.00;2.00;;;;;17.32;41.98;100726.53;6232274;22;45258;-85